sensor_id;sensor_type;location;lat;lon;timestamp;pressure;altitude;pressure_sealevel;temperature;humidity
64668;BME280;51077;42.716;23.344;2023-05-20T00:02:07;95687.47;;;15.96;59.69
64668;BME280;51077;42.716;23.344;2023-05-20T00:04:32;95684.50;;;15.94;59.65
64668;BME280;51077;42.716;23.344;2023-05-20T00:06:58;95675.78;;;15.90;59.71
64668;BME280;51077;42.716;23.344;2023-05-20T00:09:23;95681.84;;;15.88;59.69
64668;BME280;51077;42.716;23.344;2023-05-20T00:11:48;95682.94;;;15.85;59.91
64668;BME280;51077;42.716;23.344;2023-05-20T00:14:14;95682.72;;;15.83;59.94
64668;BME280;51077;42.716;23.344;2023-05-20T00:16:40;95681.03;;;15.80;59.75
64668;BME280;51077;42.716;23.344;2023-05-20T00:19:05;95687.31;;;15.80;60.01
64668;BME280;51077;42.716;23.344;2023-05-20T00:21:31;95680.81;;;15.78;60.08
64668;BME280;51077;42.716;23.344;2023-05-20T00:23:58;95680.59;;;15.76;59.86
64668;BME280;51077;42.716;23.344;2023-05-20T00:26:23;95675.63;;;15.74;60.03
64668;BME280;51077;42.716;23.344;2023-05-20T00:28:48;95667.63;;;15.71;60.02
64668;BME280;51077;42.716;23.344;2023-05-20T00:31:14;95661.16;;;15.68;60.26
64668;BME280;51077;42.716;23.344;2023-05-20T00:33:39;95667.75;;;15.65;60.15
64668;BME280;51077;42.716;23.344;2023-05-20T00:36:05;95668.06;;;15.62;60.36
64668;BME280;51077;42.716;23.344;2023-05-20T00:38:32;95673.91;;;15.58;60.44
64668;BME280;51077;42.716;23.344;2023-05-20T00:40:57;95667.44;;;15.55;60.50
64668;BME280;51077;42.716;23.344;2023-05-20T00:43:22;95659.47;;;15.52;60.51
64668;BME280;51077;42.716;23.344;2023-05-20T00:45:50;95657.25;;;15.50;60.58
64668;BME280;51077;42.716;23.344;2023-05-20T00:48:15;95649.47;;;15.49;60.52
64668;BME280;51077;42.716;23.344;2023-05-20T00:50:41;95657.03;;;15.48;60.53
64668;BME280;51077;42.716;23.344;2023-05-20T00:53:06;95659.59;;;15.46;60.50
64668;BME280;51077;42.716;23.344;2023-05-20T00:55:32;95655.13;;;15.43;60.84
64668;BME280;51077;42.716;23.344;2023-05-20T00:57:58;95643.88;;;15.41;60.79
64668;BME280;51077;42.716;23.344;2023-05-20T01:00:23;95648.63;;;15.41;60.79
64668;BME280;51077;42.716;23.344;2023-05-20T01:02:48;95653.22;;;15.38;60.83
64668;BME280;51077;42.716;23.344;2023-05-20T01:05:14;95657.03;;;15.35;60.94
64668;BME280;51077;42.716;23.344;2023-05-20T01:07:40;95651.50;;;15.35;60.95
64668;BME280;51077;42.716;23.344;2023-05-20T01:10:06;95655.56;;;15.34;60.93
64668;BME280;51077;42.716;23.344;2023-05-20T01:12:38;95652.78;;;15.34;60.99
64668;BME280;51077;42.716;23.344;2023-05-20T01:15:10;95659.19;;;15.29;61.04
64668;BME280;51077;42.716;23.344;2023-05-20T01:17:39;95655.16;;;15.30;61.10
64668;BME280;51077;42.716;23.344;2023-05-20T01:20:06;95662.69;;;15.29;61.16
64668;BME280;51077;42.716;23.344;2023-05-20T01:22:57;95655.69;;;15.28;61.08
64668;BME280;51077;42.716;23.344;2023-05-20T01:25:22;95658.22;;;15.26;61.08
64668;BME280;51077;42.716;23.344;2023-05-20T01:27:49;95659.50;;;15.25;61.09
64668;BME280;51077;42.716;23.344;2023-05-20T01:30:17;95651.75;;;15.24;61.17
64668;BME280;51077;42.716;23.344;2023-05-20T01:32:49;95659.28;;;15.23;61.28
64668;BME280;51077;42.716;23.344;2023-05-20T01:35:18;95655.34;;;15.19;61.30
64668;BME280;51077;42.716;23.344;2023-05-20T01:37:44;95656.88;;;15.20;61.12
64668;BME280;51077;42.716;23.344;2023-05-20T01:40:13;95659.63;;;15.20;61.10
64668;BME280;51077;42.716;23.344;2023-05-20T01:42:40;95664.00;;;15.15;61.23
64668;BME280;51077;42.716;23.344;2023-05-20T01:45:07;95657.19;;;15.16;61.30
64668;BME280;51077;42.716;23.344;2023-05-20T01:47:33;95656.44;;;15.16;61.05
64668;BME280;51077;42.716;23.344;2023-05-20T01:49:58;95652.72;;;15.13;61.28
64668;BME280;51077;42.716;23.344;2023-05-20T01:52:23;95651.22;;;15.12;61.20
64668;BME280;51077;42.716;23.344;2023-05-20T01:54:49;95647.72;;;15.12;61.34
64668;BME280;51077;42.716;23.344;2023-05-20T01:57:20;95644.00;;;15.09;61.19
64668;BME280;51077;42.716;23.344;2023-05-20T01:59:46;95655.06;;;15.09;61.35
64668;BME280;51077;42.716;23.344;2023-05-20T02:02:12;95654.84;;;15.07;61.30
64668;BME280;51077;42.716;23.344;2023-05-20T02:04:38;95639.31;;;15.04;61.27
64668;BME280;51077;42.716;23.344;2023-05-20T02:07:03;95639.88;;;15.02;61.40
64668;BME280;51077;42.716;23.344;2023-05-20T02:09:29;95645.91;;;15.01;61.37
64668;BME280;51077;42.716;23.344;2023-05-20T02:11:54;95644.97;;;14.98;61.47
64668;BME280;51077;42.716;23.344;2023-05-20T02:14:19;95647.50;;;14.96;61.30
64668;BME280;51077;42.716;23.344;2023-05-20T02:16:45;95643.81;;;14.94;61.42
64668;BME280;51077;42.716;23.344;2023-05-20T02:19:11;95641.56;;;14.92;61.51
64668;BME280;51077;42.716;23.344;2023-05-20T02:21:41;95630.28;;;14.90;61.50
64668;BME280;51077;42.716;23.344;2023-05-20T02:24:06;95642.41;;;14.87;61.49
64668;BME280;51077;42.716;23.344;2023-05-20T02:26:32;95630.91;;;14.83;61.56
64668;BME280;51077;42.716;23.344;2023-05-20T02:28:58;95634.22;;;14.81;61.58
64668;BME280;51077;42.716;23.344;2023-05-20T02:31:24;95635.50;;;14.80;61.60
64668;BME280;51077;42.716;23.344;2023-05-20T02:33:50;95636.03;;;14.79;61.66
64668;BME280;51077;42.716;23.344;2023-05-20T02:36:15;95636.34;;;14.75;61.66
64668;BME280;51077;42.716;23.344;2023-05-20T02:38:41;95639.63;;;14.74;61.81
64668;BME280;51077;42.716;23.344;2023-05-20T02:41:07;95635.16;;;14.71;61.81
64668;BME280;51077;42.716;23.344;2023-05-20T02:43:33;95636.97;;;14.68;61.90
64668;BME280;51077;42.716;23.344;2023-05-20T02:45:58;95638.25;;;14.67;62.07
64668;BME280;51077;42.716;23.344;2023-05-20T02:48:24;95634.53;;;14.65;61.90
64668;BME280;51077;42.716;23.344;2023-05-20T02:50:49;95640.06;;;14.65;61.88
64668;BME280;51077;42.716;23.344;2023-05-20T02:53:15;95639.81;;;14.63;61.90
64668;BME280;51077;42.716;23.344;2023-05-20T02:55:40;95635.59;;;14.62;62.06
64668;BME280;51077;42.716;23.344;2023-05-20T02:58:05;95636.88;;;14.61;61.80
64668;BME280;51077;42.716;23.344;2023-05-20T03:00:31;95633.13;;;14.58;62.14
64668;BME280;51077;42.716;23.344;2023-05-20T03:02:59;95638.66;;;14.58;62.10
64668;BME280;51077;42.716;23.344;2023-05-20T03:05:25;95643.44;;;14.57;61.98
64668;BME280;51077;42.716;23.344;2023-05-20T03:07:51;95650.97;;;14.57;62.05
64668;BME280;51077;42.716;23.344;2023-05-20T03:10:17;95658.75;;;14.58;62.42
64668;BME280;51077;42.716;23.344;2023-05-20T03:12:42;95662.91;;;14.78;71.50
64668;BME280;51077;42.716;23.344;2023-05-20T03:15:08;95663.78;;;14.87;71.07
64668;BME280;51077;42.716;23.344;2023-05-20T03:17:33;95661.13;;;14.94;71.03
64668;BME280;51077;42.716;23.344;2023-05-20T03:20:00;95663.22;;;15.01;71.03
64668;BME280;51077;42.716;23.344;2023-05-20T03:22:26;95665.16;;;15.06;70.92
64668;BME280;51077;42.716;23.344;2023-05-20T03:24:51;95660.03;;;15.11;71.63
64668;BME280;51077;42.716;23.344;2023-05-20T03:27:17;95661.97;;;15.16;71.67
64668;BME280;51077;42.716;23.344;2023-05-20T03:29:42;95659.41;;;15.18;71.93
64668;BME280;51077;42.716;23.344;2023-05-20T03:32:08;95663.56;;;15.24;71.85
64668;BME280;51077;42.716;23.344;2023-05-20T03:34:33;95659.94;;;15.29;71.30
64668;BME280;51077;42.716;23.344;2023-05-20T03:36:59;95675.13;;;15.36;71.63
64668;BME280;51077;42.716;23.344;2023-05-20T03:39:25;95675.03;;;15.42;71.75
64668;BME280;51077;42.716;23.344;2023-05-20T03:41:50;95672.69;;;15.46;71.23
64668;BME280;51077;42.716;23.344;2023-05-20T03:44:15;95674.03;;;15.52;70.64
64668;BME280;51077;42.716;23.344;2023-05-20T03:46:41;95669.47;;;15.55;70.41
64668;BME280;51077;42.716;23.344;2023-05-20T03:49:06;95674.69;;;15.58;70.52
64668;BME280;51077;42.716;23.344;2023-05-20T03:51:32;95681.38;;;15.63;70.55
64668;BME280;51077;42.716;23.344;2023-05-20T03:53:57;95681.28;;;15.69;70.56
64668;BME280;51077;42.716;23.344;2023-05-20T03:56:23;95682.63;;;15.75;70.18
64668;BME280;51077;42.716;23.344;2023-05-20T03:58:48;95689.00;;;15.83;70.04
64668;BME280;51077;42.716;23.344;2023-05-20T04:01:14;95697.72;;;15.88;69.24
64668;BME280;51077;42.716;23.344;2023-05-20T04:03:40;95697.19;;;15.89;68.46
64668;BME280;51077;42.716;23.344;2023-05-20T04:06:08;95698.69;;;15.90;68.26
64668;BME280;51077;42.716;23.344;2023-05-20T04:08:33;95699.19;;;15.89;68.16
64668;BME280;51077;42.716;23.344;2023-05-20T04:11:01;95691.53;;;15.95;67.70
64668;BME280;51077;42.716;23.344;2023-05-20T04:13:26;95705.56;;;15.97;67.41
64668;BME280;51077;42.716;23.344;2023-05-20T04:15:52;95693.75;;;15.96;67.17
64668;BME280;51077;42.716;23.344;2023-05-20T04:18:17;95692.13;;;16.01;66.67
64668;BME280;51077;42.716;23.344;2023-05-20T04:20:43;95694.38;;;16.02;67.32
64668;BME280;51077;42.716;23.344;2023-05-20T04:23:09;95688.16;;;16.09;67.11
64668;BME280;51077;42.716;23.344;2023-05-20T04:25:34;95690.59;;;16.13;66.69
64668;BME280;51077;42.716;23.344;2023-05-20T04:28:00;95699.66;;;16.14;66.32
64668;BME280;51077;42.716;23.344;2023-05-20T04:30:25;95704.13;;;16.17;65.93
64668;BME280;51077;42.716;23.344;2023-05-20T04:32:51;95701.53;;;16.19;65.86
64668;BME280;51077;42.716;23.344;2023-05-20T04:35:17;95697.72;;;16.22;65.54
64668;BME280;51077;42.716;23.344;2023-05-20T04:37:42;95698.13;;;16.26;65.39
64668;BME280;51077;42.716;23.344;2023-05-20T04:40:13;95706.84;;;16.30;65.07
64668;BME280;51077;42.716;23.344;2023-05-20T04:42:39;95706.50;;;16.33;65.10
64668;BME280;51077;42.716;23.344;2023-05-20T04:45:05;95706.91;;;16.38;64.78
64668;BME280;51077;42.716;23.344;2023-05-20T04:47:32;95711.03;;;16.44;64.78
64668;BME280;51077;42.716;23.344;2023-05-20T04:50:03;95705.88;;;16.48;64.28
64668;BME280;51077;42.716;23.344;2023-05-20T04:52:29;95703.94;;;16.56;64.00
64668;BME280;51077;42.716;23.344;2023-05-20T04:54:55;95709.00;;;16.66;63.89
64668;BME280;51077;42.716;23.344;2023-05-20T04:57:22;95710.13;;;16.70;63.28
64668;BME280;51077;42.716;23.344;2023-05-20T04:59:47;95714.50;;;16.79;63.19
64668;BME280;51077;42.716;23.344;2023-05-20T05:02:13;95715.50;;;16.89;65.06
64668;BME280;51077;42.716;23.344;2023-05-20T05:04:39;95708.03;;;17.05;65.36
64668;BME280;51077;42.716;23.344;2023-05-20T05:07:04;95708.66;;;17.19;64.05
64668;BME280;51077;42.716;23.344;2023-05-20T05:09:30;95707.56;;;17.22;63.46
64668;BME280;51077;42.716;23.344;2023-05-20T05:11:55;95715.22;;;17.29;63.47
64668;BME280;51077;42.716;23.344;2023-05-20T05:14:21;95716.34;;;17.33;63.17
64668;BME280;51077;42.716;23.344;2023-05-20T05:16:48;95710.63;;;17.39;62.93
64668;BME280;51077;42.716;23.344;2023-05-20T05:19:13;95709.22;;;17.46;62.56
64668;BME280;51077;42.716;23.344;2023-05-20T05:21:38;95703.50;;;17.51;61.94
64668;BME280;51077;42.716;23.344;2023-05-20T05:24:04;95706.31;;;17.59;61.78
64668;BME280;51077;42.716;23.344;2023-05-20T05:26:29;95705.41;;;17.64;61.48
64668;BME280;51077;42.716;23.344;2023-05-20T05:28:55;95701.72;;;17.69;61.07
64668;BME280;51077;42.716;23.344;2023-05-20T05:31:20;95703.06;;;17.76;60.66
64668;BME280;51077;42.716;23.344;2023-05-20T05:33:46;95699.56;;;17.83;60.79
64668;BME280;51077;42.716;23.344;2023-05-20T05:36:11;95704.59;;;17.92;60.46
64668;BME280;51077;42.716;23.344;2023-05-20T05:38:37;95699.81;;;18.00;60.32
64668;BME280;51077;42.716;23.344;2023-05-20T05:41:02;95697.81;;;18.08;59.98
64668;BME280;51077;42.716;23.344;2023-05-20T05:43:27;95695.97;;;18.19;59.48
64668;BME280;51077;42.716;23.344;2023-05-20T05:45:53;95698.97;;;18.28;59.40
64668;BME280;51077;42.716;23.344;2023-05-20T05:48:18;95700.44;;;18.37;59.02
64668;BME280;51077;42.716;23.344;2023-05-20T05:50:44;95693.59;;;18.46;59.10
64668;BME280;51077;42.716;23.344;2023-05-20T05:53:10;95698.63;;;18.55;58.69
64668;BME280;51077;42.716;23.344;2023-05-20T05:55:36;95705.84;;;18.66;58.41
64668;BME280;51077;42.716;23.344;2023-05-20T05:58:01;95696.81;;;18.73;58.21
64668;BME280;51077;42.716;23.344;2023-05-20T06:00:27;95696.97;;;18.82;58.08
64668;BME280;51077;42.716;23.344;2023-05-20T06:02:52;95692.31;;;18.93;57.68
64668;BME280;51077;42.716;23.344;2023-05-20T06:05:17;95691.97;;;19.04;57.41
64668;BME280;51077;42.716;23.344;2023-05-20T06:07:43;95687.28;;;19.14;57.13
64668;BME280;51077;42.716;23.344;2023-05-20T06:10:08;95683.94;;;19.23;56.81
64668;BME280;51077;42.716;23.344;2023-05-20T06:12:34;95674.25;;;19.32;56.54
64668;BME280;51077;42.716;23.344;2023-05-20T06:14:59;95674.44;;;19.42;56.35
64668;BME280;51077;42.716;23.344;2023-05-20T06:17:25;95678.69;;;19.50;56.13
64668;BME280;51077;42.716;23.344;2023-05-20T06:19:50;95671.78;;;19.59;55.91
64668;BME280;51077;42.716;23.344;2023-05-20T06:22:15;95678.44;;;19.71;55.54
64668;BME280;51077;42.716;23.344;2023-05-20T06:24:41;95671.72;;;19.82;55.44
64668;BME280;51077;42.716;23.344;2023-05-20T06:27:06;95678.16;;;19.92;55.14
64668;BME280;51077;42.716;23.344;2023-05-20T06:29:32;95679.94;;;20.05;54.84
64668;BME280;51077;42.716;23.344;2023-05-20T06:31:58;95678.22;;;20.17;54.56
64668;BME280;51077;42.716;23.344;2023-05-20T06:34:23;95669.38;;;20.28;54.26
64668;BME280;51077;42.716;23.344;2023-05-20T06:36:49;95664.69;;;20.39;53.86
64668;BME280;51077;42.716;23.344;2023-05-20T06:39:14;95663.69;;;20.51;53.65
64668;BME280;51077;42.716;23.344;2023-05-20T06:41:40;95656.91;;;20.62;53.42
64668;BME280;51077;42.716;23.344;2023-05-20T06:44:06;95657.19;;;20.74;53.17
64668;BME280;51077;42.716;23.344;2023-05-20T06:46:32;95649.09;;;20.86;52.70
64668;BME280;51077;42.716;23.344;2023-05-20T06:48:58;95656.41;;;20.98;52.25
64668;BME280;51077;42.716;23.344;2023-05-20T06:51:24;95651.66;;;21.08;52.12
64668;BME280;51077;42.716;23.344;2023-05-20T06:53:49;95656.34;;;21.23;51.89
64668;BME280;51077;42.716;23.344;2023-05-20T06:56:15;95656.03;;;21.37;51.54
64668;BME280;51077;42.716;23.344;2023-05-20T06:58:40;95644.53;;;21.50;51.34
64668;BME280;51077;42.716;23.344;2023-05-20T07:01:06;95654.63;;;21.63;50.91
64668;BME280;51077;42.716;23.344;2023-05-20T07:03:31;95659.88;;;21.76;50.36
64668;BME280;51077;42.716;23.344;2023-05-20T07:05:57;95656.72;;;21.89;49.74
64668;BME280;51077;42.716;23.344;2023-05-20T07:08:23;95663.25;;;22.01;49.45
64668;BME280;51077;42.716;23.344;2023-05-20T07:10:48;95651.91;;;22.17;49.18
64668;BME280;51077;42.716;23.344;2023-05-20T07:13:14;95653.00;;;22.31;48.21
64668;BME280;51077;42.716;23.344;2023-05-20T07:15:39;95654.81;;;22.46;47.92
64668;BME280;51077;42.716;23.344;2023-05-20T07:18:05;95649.72;;;22.62;47.44
64668;BME280;51077;42.716;23.344;2023-05-20T07:20:30;95639.03;;;22.77;47.04
64668;BME280;51077;42.716;23.344;2023-05-20T07:22:56;95646.59;;;22.94;46.38
64668;BME280;51077;42.716;23.344;2023-05-20T07:25:21;95641.47;;;23.10;45.76
64668;BME280;51077;42.716;23.344;2023-05-20T07:27:46;95636.34;;;23.26;45.41
64668;BME280;51077;42.716;23.344;2023-05-20T07:30:12;95633.38;;;23.43;45.16
64668;BME280;51077;42.716;23.344;2023-05-20T07:32:38;95630.28;;;23.58;44.57
64668;BME280;51077;42.716;23.344;2023-05-20T07:35:04;95630.00;;;23.74;44.17
64668;BME280;51077;42.716;23.344;2023-05-20T07:37:29;95645.19;;;23.90;43.65
64668;BME280;51077;42.716;23.344;2023-05-20T07:39:54;95637.75;;;24.04;42.86
64668;BME280;51077;42.716;23.344;2023-05-20T07:42:20;95631.06;;;24.19;42.55
64668;BME280;51077;42.716;23.344;2023-05-20T07:44:45;95634.41;;;24.37;42.22
64668;BME280;51077;42.716;23.344;2023-05-20T07:47:12;95638.34;;;24.53;41.18
64668;BME280;51077;42.716;23.344;2023-05-20T07:49:37;95642.25;;;24.70;41.04
64668;BME280;51077;42.716;23.344;2023-05-20T07:52:03;95639.22;;;24.87;40.85
64668;BME280;51077;42.716;23.344;2023-05-20T07:54:28;95635.41;;;25.04;40.53
64668;BME280;51077;42.716;23.344;2023-05-20T07:56:54;95634.56;;;25.23;40.11
64668;BME280;51077;42.716;23.344;2023-05-20T07:59:19;95644.91;;;25.42;39.70
64668;BME280;51077;42.716;23.344;2023-05-20T08:01:45;95637.06;;;25.62;39.43
64668;BME280;51077;42.716;23.344;2023-05-20T08:04:11;95641.22;;;25.82;39.40
64668;BME280;51077;42.716;23.344;2023-05-20T08:06:36;95638.34;;;26.03;38.87
64668;BME280;51077;42.716;23.344;2023-05-20T08:09:02;95638.84;;;26.23;37.92
64668;BME280;51077;42.716;23.344;2023-05-20T08:11:28;95641.31;;;26.41;37.12
64668;BME280;51077;42.716;23.344;2023-05-20T08:13:53;95632.19;;;26.52;36.76
64668;BME280;51077;42.716;23.344;2023-05-20T08:16:20;95630.69;;;26.63;36.31
64668;BME280;51077;42.716;23.344;2023-05-20T08:18:48;95635.22;;;26.68;35.87
64668;BME280;51077;42.716;23.344;2023-05-20T08:21:14;95634.25;;;26.75;35.84
64668;BME280;51077;42.716;23.344;2023-05-20T08:23:40;95622.00;;;26.82;35.46
64668;BME280;51077;42.716;23.344;2023-05-20T08:26:05;95622.97;;;26.87;35.50
64668;BME280;51077;42.716;23.344;2023-05-20T08:28:31;95621.38;;;26.95;35.33
64668;BME280;51077;42.716;23.344;2023-05-20T08:30:56;95626.88;;;27.05;35.22
64668;BME280;51077;42.716;23.344;2023-05-20T08:33:24;95624.66;;;27.15;35.10
64668;BME280;51077;42.716;23.344;2023-05-20T08:35:49;95620.47;;;27.28;35.06
64668;BME280;51077;42.716;23.344;2023-05-20T08:38:15;95615.53;;;27.40;34.81
64668;BME280;51077;42.716;23.344;2023-05-20T08:40:40;95617.78;;;27.55;34.69
64668;BME280;51077;42.716;23.344;2023-05-20T08:43:06;95616.38;;;27.68;34.42
64668;BME280;51077;42.716;23.344;2023-05-20T08:45:33;95610.72;;;27.80;34.43
64668;BME280;51077;42.716;23.344;2023-05-20T08:47:59;95617.25;;;27.96;34.18
64668;BME280;51077;42.716;23.344;2023-05-20T08:50:25;95614.03;;;28.02;34.23
64668;BME280;51077;42.716;23.344;2023-05-20T08:52:51;95612.56;;;28.01;34.27
64668;BME280;51077;42.716;23.344;2023-05-20T08:55:25;95603.91;;;28.11;34.08
64668;BME280;51077;42.716;23.344;2023-05-20T08:57:55;95608.53;;;28.18;33.86
64668;BME280;51077;42.716;23.344;2023-05-20T09:00:22;95609.19;;;28.30;33.88
64668;BME280;51077;42.716;23.344;2023-05-20T09:02:51;95604.94;;;28.43;33.84
64668;BME280;51077;42.716;23.344;2023-05-20T09:05:17;95608.41;;;28.55;33.50
64668;BME280;51077;42.716;23.344;2023-05-20T09:07:43;95600.03;;;28.71;33.28
64668;BME280;51077;42.716;23.344;2023-05-20T09:10:09;95597.84;;;28.83;33.03
64668;BME280;51077;42.716;23.344;2023-05-20T09:12:35;95598.06;;;29.01;33.13
64668;BME280;51077;42.716;23.344;2023-05-20T09:15:01;95598.16;;;29.03;32.16
64668;BME280;51077;42.716;23.344;2023-05-20T09:17:26;95600.03;;;29.26;32.92
64668;BME280;51077;42.716;23.344;2023-05-20T09:19:52;95587.84;;;29.37;32.09
64668;BME280;51077;42.716;23.344;2023-05-20T09:22:25;95584.28;;;29.37;31.69
64668;BME280;51077;42.716;23.344;2023-05-20T09:24:52;95582.47;;;29.57;31.41
64668;BME280;51077;42.716;23.344;2023-05-20T09:27:21;95579.91;;;29.63;30.71
64668;BME280;51077;42.716;23.344;2023-05-20T09:29:47;95585.56;;;29.63;30.88
64668;BME280;51077;42.716;23.344;2023-05-20T09:32:13;95583.78;;;29.70;30.89
64668;BME280;51077;42.716;23.344;2023-05-20T09:34:39;95580.84;;;29.68;30.08
64668;BME280;51077;42.716;23.344;2023-05-20T09:37:06;95586.69;;;29.72;30.36
64668;BME280;51077;42.716;23.344;2023-05-20T09:39:38;95583.97;;;29.74;30.45
64668;BME280;51077;42.716;23.344;2023-05-20T09:42:10;95580.72;;;29.95;30.50
64668;BME280;51077;42.716;23.344;2023-05-20T09:44:37;95564.28;;;30.08;30.31
64668;BME280;51077;42.716;23.344;2023-05-20T09:47:04;95569.06;;;30.19;30.28
64668;BME280;51077;42.716;23.344;2023-05-20T09:49:31;95569.44;;;30.27;29.85
64668;BME280;51077;42.716;23.344;2023-05-20T09:51:58;95560.19;;;30.42;29.42
64668;BME280;51077;42.716;23.344;2023-05-20T09:54:27;95561.75;;;30.61;30.01
64668;BME280;51077;42.716;23.344;2023-05-20T09:56:55;95559.28;;;30.69;29.68
64668;BME280;51077;42.716;23.344;2023-05-20T09:59:21;95545.84;;;30.70;29.16
64668;BME280;51077;42.716;23.344;2023-05-20T10:01:47;95552.31;;;30.72;29.45
64668;BME280;51077;42.716;23.344;2023-05-20T10:04:15;95553.38;;;30.97;29.05
64668;BME280;51077;42.716;23.344;2023-05-20T10:06:59;95541.28;;;30.78;29.05
64668;BME280;51077;42.716;23.344;2023-05-20T10:20:48;95519.44;;;30.99;27.55
64668;BME280;51077;42.716;23.344;2023-05-20T10:23:27;95525.41;;;30.89;27.54
64668;BME280;51077;42.716;23.344;2023-05-20T10:25:55;95510.53;;;31.07;27.86
64668;BME280;51077;42.716;23.344;2023-05-20T10:28:39;95517.41;;;31.01;27.81
64668;BME280;51077;42.716;23.344;2023-05-20T10:31:16;95505.25;;;31.17;26.99
64668;BME280;51077;42.716;23.344;2023-05-20T10:33:44;95513.66;;;31.31;27.04
64668;BME280;51077;42.716;23.344;2023-05-20T10:36:10;95507.56;;;31.38;27.20
64668;BME280;51077;42.716;23.344;2023-05-20T10:38:59;95508.38;;;31.59;26.78
64668;BME280;51077;42.716;23.344;2023-05-20T10:41:27;95501.00;;;31.51;26.19
64668;BME280;51077;42.716;23.344;2023-05-20T10:44:00;95496.63;;;31.66;26.03
64668;BME280;51077;42.716;23.344;2023-05-20T10:46:29;95489.81;;;31.56;26.24
64668;BME280;51077;42.716;23.344;2023-05-20T10:48:54;95488.16;;;31.68;26.09
64668;BME280;51077;42.716;23.344;2023-05-20T10:51:20;95478.25;;;31.69;26.01
64668;BME280;51077;42.716;23.344;2023-05-20T10:53:46;95475.09;;;31.79;25.47
64668;BME280;51077;42.716;23.344;2023-05-20T10:56:22;95474.78;;;31.71;25.88
64668;BME280;51077;42.716;23.344;2023-05-20T10:58:49;95471.38;;;31.92;25.63
64668;BME280;51077;42.716;23.344;2023-05-20T11:01:15;95474.13;;;32.10;25.33
64668;BME280;51077;42.716;23.344;2023-05-20T11:03:42;95473.25;;;32.06;24.92
64668;BME280;51077;42.716;23.344;2023-05-20T11:06:18;95466.69;;;32.21;25.04
64668;BME280;51077;42.716;23.344;2023-05-20T11:08:44;95459.72;;;32.24;25.19
64668;BME280;51077;42.716;23.344;2023-05-20T11:11:13;95467.00;;;32.29;24.94
64668;BME280;51077;42.716;23.344;2023-05-20T11:13:39;95456.66;;;32.58;24.86
64668;BME280;51077;42.716;23.344;2023-05-20T11:16:04;95465.25;;;32.60;24.84
64668;BME280;51077;42.716;23.344;2023-05-20T11:18:30;95463.38;;;32.46;24.93
64668;BME280;51077;42.716;23.344;2023-05-20T11:21:00;95457.97;;;32.55;24.62
64668;BME280;51077;42.716;23.344;2023-05-20T11:23:26;95465.03;;;32.53;24.58
64668;BME280;51077;42.716;23.344;2023-05-20T11:25:53;95452.84;;;32.71;24.53
64668;BME280;51077;42.716;23.344;2023-05-20T11:28:19;95453.69;;;32.53;24.35
64668;BME280;51077;42.716;23.344;2023-05-20T11:30:49;95451.69;;;32.58;24.16
64668;BME280;51077;42.716;23.344;2023-05-20T11:33:16;95437.78;;;32.88;24.28
64668;BME280;51077;42.716;23.344;2023-05-20T11:35:46;95433.28;;;32.81;24.25
64668;BME280;51077;42.716;23.344;2023-05-20T11:38:12;95434.13;;;32.64;24.81
64668;BME280;51077;42.716;23.344;2023-05-20T11:40:42;95435.06;;;32.70;24.38
64668;BME280;51077;42.716;23.344;2023-05-20T11:43:10;95422.22;;;32.69;24.98
64668;BME280;51077;42.716;23.344;2023-05-20T11:45:44;95423.00;;;32.92;24.64
64668;BME280;51077;42.716;23.344;2023-05-20T11:48:10;95423.72;;;32.92;24.74
64668;BME280;51077;42.716;23.344;2023-05-20T11:50:41;95417.53;;;32.78;24.85
64668;BME280;51077;42.716;23.344;2023-05-20T11:53:09;95427.19;;;32.69;24.96
64668;BME280;51077;42.716;23.344;2023-05-20T11:55:48;95425.63;;;32.24;25.40
64668;BME280;51077;42.716;23.344;2023-05-20T11:58:19;95420.78;;;31.69;25.81
64668;BME280;51077;42.716;23.344;2023-05-20T12:00:45;95419.06;;;31.42;26.61
64668;BME280;51077;42.716;23.344;2023-05-20T12:03:11;95418.84;;;31.18;26.40
64668;BME280;51077;42.716;23.344;2023-05-20T12:05:37;95430.44;;;30.88;27.12
64668;BME280;51077;42.716;23.344;2023-05-20T12:08:03;95419.59;;;31.00;27.13
64668;BME280;51077;42.716;23.344;2023-05-20T12:10:29;95405.47;;;31.38;26.61
64668;BME280;51077;42.716;23.344;2023-05-20T12:12:55;95395.03;;;31.63;25.98
64668;BME280;51077;42.716;23.344;2023-05-20T12:15:20;95403.00;;;31.86;25.58
64668;BME280;51077;42.716;23.344;2023-05-20T12:17:47;95408.19;;;31.92;25.21
64668;BME280;51077;42.716;23.344;2023-05-20T12:20:14;95413.56;;;32.03;25.76
64668;BME280;51077;42.716;23.344;2023-05-20T12:22:42;95403.06;;;32.28;25.48
64668;BME280;51077;42.716;23.344;2023-05-20T12:25:10;95402.53;;;32.34;25.06
64668;BME280;51077;42.716;23.344;2023-05-20T12:27:36;95398.28;;;32.35;24.94
64668;BME280;51077;42.716;23.344;2023-05-20T12:30:01;95408.75;;;32.08;24.67
64668;BME280;51077;42.716;23.344;2023-05-20T12:32:27;95416.47;;;32.06;25.05
64668;BME280;51077;42.716;23.344;2023-05-20T12:34:52;95415.28;;;32.13;24.60
64668;BME280;51077;42.716;23.344;2023-05-20T12:37:18;95414.66;;;32.14;24.46
64668;BME280;51077;42.716;23.344;2023-05-20T12:39:43;95424.19;;;32.03;24.65
64668;BME280;51077;42.716;23.344;2023-05-20T12:42:08;95439.03;;;32.01;24.74
64668;BME280;51077;42.716;23.344;2023-05-20T12:44:34;95423.88;;;31.75;24.61
64668;BME280;51077;42.716;23.344;2023-05-20T12:46:59;95439.88;;;31.66;24.13
64668;BME280;51077;42.716;23.344;2023-05-20T12:49:25;95428.56;;;31.48;24.21
64668;BME280;51077;42.716;23.344;2023-05-20T12:51:50;95436.16;;;31.08;24.80
64668;BME280;51077;42.716;23.344;2023-05-20T12:54:16;95437.56;;;30.89;24.93
64668;BME280;51077;42.716;23.344;2023-05-20T12:56:42;95427.59;;;30.88;24.56
64668;BME280;51077;42.716;23.344;2023-05-20T12:59:12;95425.88;;;30.99;24.38